Ronda, Spain
Current Conditions -  °F | °C
As of 4:00 AM on Thursday 23 Oct 2014 (Local Time) from LEMG Reporting Station
Clear Clear  
Wind Chill: 63°   Ceiling: Unl
Heat Index: 63°   Visibility: 6mi
Dew Point: 59°   Wind: 7mph
Humidity: 88%   Direction: 280°W
Pressure: 30.18"   Gusts: NA
Location:  36.74°N, 5.17°W
Report Text: LEMG 230200Z 28006KT CAVOK 17/15 Q1022 NOSIG
Loading
Personal Weather Stations






























Interactive Weather Map
Tropical Storm Tracking
New forecast layout! Learn more

10-Day Weather Forecast

Advertisements
Track Severe Weather on mobile